createdAt,value
2023-03-06T00:01:05.139Z,50.60
2023-03-06T00:03:33.877Z,48.95
2023-03-06T00:06:01.636Z,52.53
2023-03-06T00:08:29.909Z,49.03
2023-03-06T00:10:57.549Z,44.22
2023-03-06T00:13:26.885Z,43.95
2023-03-06T00:15:54.058Z,52.05
2023-03-06T00:18:21.192Z,50.45
2023-03-06T00:20:48.410Z,50.47
2023-03-06T00:23:15.796Z,46.53
2023-03-06T00:25:45.153Z,45.22
2023-03-06T00:28:14.964Z,50.42
2023-03-06T00:30:42.845Z,44.58
2023-03-06T00:33:10.969Z,53.35
2023-03-06T00:35:41.684Z,45.47
2023-03-06T00:38:12.148Z,48.13
2023-03-06T00:40:39.623Z,54.65
2023-03-06T00:43:06.665Z,50.03
2023-03-06T00:45:33.848Z,52.33
2023-03-06T00:48:01.401Z,47.92
2023-03-06T00:50:28.453Z,50.33
2023-03-06T00:52:55.436Z,48.35
2023-03-06T00:55:25.050Z,47.67
2023-03-06T00:57:52.115Z,47.97
2023-03-06T01:00:20.058Z,42.75
2023-03-06T01:02:50.972Z,43.28
2023-03-06T01:05:18.180Z,47.20
2023-03-06T01:07:45.139Z,48.00
2023-03-06T01:10:12.967Z,45.45
2023-03-06T01:12:41.171Z,50.78
2023-03-06T01:15:09.224Z,43.47
2023-03-06T01:17:36.314Z,43.53
2023-03-06T01:20:04.843Z,42.55
2023-03-06T01:22:31.934Z,43.03
2023-03-06T01:25:00.025Z,49.67
2023-03-06T01:27:27.141Z,42.92
2023-03-06T01:29:54.159Z,48.58
2023-03-06T01:32:22.130Z,51.35
2023-03-06T01:34:50.276Z,42.75
2023-03-06T01:37:17.695Z,43.78
2023-03-06T01:39:44.792Z,43.63
2023-03-06T01:42:12.297Z,40.95
2023-03-06T01:45:05.526Z,42.17
2023-03-06T01:47:36.522Z,39.88
2023-03-06T01:50:10.539Z,50.40
2023-03-06T01:52:54.837Z,42.92
2023-03-06T01:55:35.375Z,54.53
2023-03-06T01:58:11.360Z,48.83
2023-03-06T02:00:39.449Z,54.88
2023-03-06T02:03:15.150Z,56.33
2023-03-06T02:05:44.133Z,48.67
2023-03-06T02:08:15.580Z,44.97
2023-03-06T02:10:58.752Z,44.88
2023-03-06T02:13:25.937Z,47.72
2023-03-06T02:15:52.997Z,44.40
2023-03-06T02:18:20.318Z,47.58
2023-03-06T02:20:53.659Z,42.67
2023-03-06T02:23:57.687Z,44.57
2023-03-06T02:26:28.165Z,47.85
2023-03-06T02:28:57.550Z,49.15
2023-03-06T02:31:30.286Z,47.60
2023-03-06T02:34:16.320Z,47.85
2023-03-06T02:36:48.805Z,46.28
2023-03-06T02:39:19.679Z,46.40
2023-03-06T02:41:49.833Z,55.20
2023-03-06T02:44:18.245Z,54.17
2023-03-06T02:46:45.368Z,70.60
2023-03-06T02:49:13.004Z,48.88
2023-03-06T02:51:40.574Z,52.15
2023-03-06T02:54:07.996Z,59.20
2023-03-06T02:56:35.317Z,56.70
2023-03-06T02:59:03.216Z,60.08
2023-03-06T03:01:31.183Z,53.28
2023-03-06T03:03:58.206Z,49.60
2023-03-06T03:06:25.321Z,47.25
2023-03-06T03:08:53.192Z,55.90
2023-03-06T03:11:20.667Z,57.03
2023-03-06T03:13:47.690Z,57.80
2023-03-06T03:16:20.459Z,50.30
2023-03-06T03:18:48.204Z,48.35
2023-03-06T03:21:18.693Z,50.55
2023-03-06T03:23:47.426Z,47.53
2023-03-06T03:26:22.595Z,50.10
2023-03-06T03:29:00.755Z,49.30
2023-03-06T03:31:27.937Z,51.00
2023-03-06T03:33:55.285Z,53.92
2023-03-06T03:36:23.155Z,50.85
2023-03-06T03:38:50.592Z,50.50
2023-03-06T03:41:17.825Z,54.53
2023-03-06T03:43:45.257Z,48.10
2023-03-06T03:46:15.041Z,48.75
2023-03-06T03:48:42.926Z,45.38
2023-03-06T03:51:13.749Z,43.33
2023-03-06T03:56:16.193Z,49.58
2023-03-06T03:58:53.214Z,47.28
2023-03-06T04:01:21.361Z,48.63
2023-03-06T04:03:48.565Z,45.95
2023-03-06T04:06:17.884Z,49.47
2023-03-06T04:08:45.430Z,48.90
2023-03-06T04:11:12.476Z,47.97
2023-03-06T04:13:40.024Z,46.03
2023-03-06T04:16:07.838Z,55.20
2023-03-06T04:18:37.394Z,51.40
2023-03-06T04:21:06.283Z,50.72
2023-03-06T04:23:34.502Z,55.72
2023-03-06T04:26:02.044Z,52.88
2023-03-06T04:28:29.439Z,53.20
2023-03-06T04:30:57.958Z,49.50
2023-03-06T04:33:25.365Z,51.63
2023-03-06T04:35:52.646Z,52.03
2023-03-06T04:38:24.889Z,50.28
2023-03-06T04:40:51.964Z,51.60
2023-03-06T04:43:19.504Z,49.90
2023-03-06T04:45:46.613Z,51.90
2023-03-06T04:48:17.228Z,50.67
2023-03-06T04:50:45.110Z,48.38
2023-03-06T04:53:12.430Z,49.58
2023-03-06T04:55:39.485Z,46.33
2023-03-06T04:58:06.565Z,55.58
2023-03-06T05:00:33.900Z,55.13
2023-03-06T05:03:02.096Z,52.97
2023-03-06T05:05:29.749Z,55.85
2023-03-06T05:07:57.407Z,53.95
2023-03-06T05:10:24.731Z,58.13
2023-03-06T05:12:51.962Z,54.05
2023-03-06T05:15:19.220Z,53.55
2023-03-06T05:17:47.759Z,56.65
2023-03-06T05:20:16.706Z,50.40
2023-03-06T05:22:44.511Z,47.78
2023-03-06T05:25:12.638Z,47.85
2023-03-06T05:27:39.944Z,51.17
2023-03-06T05:30:08.505Z,54.28
2023-03-06T05:32:36.260Z,57.78
2023-03-06T05:35:05.069Z,54.10
2023-03-06T05:37:33.511Z,48.92
2023-03-06T05:40:00.742Z,53.90
2023-03-06T05:42:31.246Z,55.08
2023-03-06T05:44:58.338Z,51.20
2023-03-06T05:47:25.560Z,56.72
2023-03-06T05:49:52.764Z,48.25
2023-03-06T05:52:19.866Z,45.22
2023-03-06T05:54:51.859Z,46.10
2023-03-06T05:57:21.570Z,49.95
2023-03-06T05:59:50.124Z,56.28
2023-03-06T06:02:19.626Z,57.40
2023-03-06T06:04:47.360Z,50.17
2023-03-06T06:07:16.421Z,58.83
2023-03-06T06:09:45.776Z,62.03
2023-03-06T06:12:14.314Z,57.78
2023-03-06T06:14:41.310Z,60.90
2023-03-06T06:17:08.533Z,54.42
2023-03-06T06:19:35.809Z,55.10
2023-03-06T06:22:03.958Z,60.08
2023-03-06T06:24:32.461Z,55.15
2023-03-06T06:27:03.637Z,55.35
2023-03-06T06:29:31.714Z,50.95
2023-03-06T06:31:59.055Z,54.90
2023-03-06T06:34:27.076Z,51.03
2023-03-06T06:36:55.051Z,49.50
2023-03-06T06:39:23.770Z,53.65
2023-03-06T06:42:09.538Z,54.33
2023-03-06T06:44:40.234Z,47.88
2023-03-06T06:47:22.430Z,52.78
2023-03-06T06:49:55.742Z,48.27
2023-03-06T06:52:25.502Z,46.35
2023-03-06T06:54:53.901Z,50.10
2023-03-06T06:57:22.162Z,44.03
2023-03-06T06:59:51.270Z,53.17
2023-03-06T07:02:19.820Z,47.53
2023-03-06T07:05:02.344Z,50.42
2023-03-06T07:07:31.717Z,53.50
2023-03-06T07:09:59.126Z,54.72
2023-03-06T07:12:26.278Z,48.10
2023-03-06T07:14:53.367Z,51.30
2023-03-06T07:17:20.539Z,41.90
2023-03-06T07:19:48.352Z,56.47
2023-03-06T07:22:15.580Z,51.47
2023-03-06T07:24:42.751Z,48.22
2023-03-06T07:27:09.813Z,49.85
2023-03-06T07:29:37.087Z,53.60
2023-03-06T07:32:04.396Z,52.28
2023-03-06T07:34:31.914Z,50.28
2023-03-06T07:36:59.057Z,47.75
2023-03-06T07:39:28.225Z,44.55
2023-03-06T07:41:55.287Z,43.33
2023-03-06T07:44:23.009Z,48.33
2023-03-06T07:46:50.284Z,41.75
2023-03-06T07:49:18.263Z,45.95
2023-03-06T07:51:45.485Z,45.75
2023-03-06T07:54:12.599Z,54.45
2023-03-06T07:56:39.968Z,50.25
2023-03-06T07:59:07.119Z,50.63
2023-03-06T08:01:34.388Z,52.63
2023-03-06T08:04:02.222Z,46.85
2023-03-06T08:06:29.482Z,47.53
2023-03-06T08:08:57.260Z,48.20
2023-03-06T08:11:30.278Z,40.30
2023-03-06T08:14:01.296Z,39.35
2023-03-06T08:16:30.675Z,41.65
2023-03-06T08:18:58.235Z,41.88
2023-03-06T08:21:28.164Z,43.17
2023-03-06T08:23:56.641Z,43.15
2023-03-06T08:26:29.752Z,42.50
2023-03-06T08:28:59.834Z,38.58
2023-03-06T08:31:36.394Z,46.97
2023-03-06T08:34:07.398Z,40.63
2023-03-06T08:36:34.795Z,38.90
2023-03-06T08:39:02.435Z,36.45
2023-03-06T08:41:30.314Z,33.25
2023-03-06T08:43:57.727Z,34.92
2023-03-06T08:46:27.245Z,40.70
2023-03-06T08:48:59.483Z,38.58
2023-03-06T08:51:29.048Z,40.10
2023-03-06T08:53:59.959Z,40.70
2023-03-06T08:56:33.046Z,33.83
2023-03-06T08:59:04.081Z,39.08
2023-03-06T09:01:37.879Z,39.40
2023-03-06T09:04:10.588Z,37.45
2023-03-06T09:06:42.573Z,42.60
2023-03-06T09:09:10.939Z,44.83
2023-03-06T09:11:38.868Z,41.45
2023-03-06T09:14:06.509Z,34.60
2023-03-06T09:16:33.967Z,32.90
2023-03-06T09:19:01.401Z,34.08
2023-03-06T09:21:28.821Z,37.00
2023-03-06T09:23:56.272Z,38.80
2023-03-06T09:26:32.808Z,37.90
2023-03-06T09:29:07.877Z,35.33
2023-03-06T09:31:35.043Z,33.67
2023-03-06T09:34:02.232Z,32.45
2023-03-06T09:36:29.405Z,34.13
2023-03-06T09:38:57.076Z,33.58
2023-03-06T09:41:29.437Z,33.90
2023-03-06T09:44:05.105Z,38.22
2023-03-06T09:47:20.182Z,36.65
2023-03-06T09:50:47.038Z,36.95
2023-03-06T09:54:03.011Z,43.42
2023-03-06T09:56:34.525Z,40.70
2023-03-06T09:59:22.910Z,32.35
2023-03-06T10:02:09.470Z,37.25
2023-03-06T10:04:44.710Z,35.47
2023-03-06T10:07:25.588Z,32.35
2023-03-06T10:10:04.217Z,30.70
2023-03-06T10:12:42.585Z,28.77
2023-03-06T10:15:26.058Z,28.52
2023-03-06T10:17:53.562Z,30.58
2023-03-06T10:20:41.612Z,31.33
2023-03-06T10:23:52.790Z,34.97
2023-03-06T10:26:28.013Z,33.05
2023-03-06T10:30:01.307Z,30.10
2023-03-06T10:32:55.290Z,28.17
2023-03-06T10:35:30.644Z,31.70
2023-03-06T10:38:16.311Z,32.72
2023-03-06T10:41:01.113Z,30.65
2023-03-06T10:43:28.556Z,26.45
2023-03-06T10:45:55.862Z,21.70
2023-03-06T10:48:27.096Z,29.77
2023-03-06T10:51:20.981Z,23.92
2023-03-06T10:53:54.956Z,26.50
2023-03-06T10:56:35.486Z,28.65
2023-03-06T10:59:19.941Z,24.48
2023-03-06T11:01:57.214Z,18.23
2023-03-06T11:04:36.786Z,22.88
2023-03-06T11:07:20.692Z,22.40
2023-03-06T11:10:19.601Z,20.98
2023-03-06T11:13:07.696Z,19.58
2023-03-06T11:15:34.989Z,23.77
2023-03-06T11:18:23.872Z,25.27
2023-03-06T11:20:54.681Z,19.33
2023-03-06T11:23:39.669Z,23.33
2023-03-06T11:26:15.946Z,21.02
2023-03-06T11:29:03.291Z,22.50
2023-03-06T11:32:10.213Z,21.85
2023-03-06T11:34:53.811Z,26.52
2023-03-06T11:37:57.508Z,22.48
2023-03-06T11:40:34.067Z,28.70
2023-03-06T11:43:30.134Z,28.33
2023-03-06T11:46:11.458Z,23.08
2023-03-06T11:48:54.172Z,30.75
2023-03-06T11:51:34.944Z,31.88
2023-03-06T11:54:03.091Z,31.40
2023-03-06T11:56:50.645Z,31.30
2023-03-06T11:59:46.132Z,27.95
2023-03-06T12:02:28.631Z,31.17
2023-03-06T12:05:53.355Z,28.77
2023-03-06T12:08:46.469Z,29.17
2023-03-06T12:11:35.933Z,27.67
2023-03-06T12:14:16.395Z,24.33
2023-03-06T12:17:09.293Z,27.55
2023-03-06T12:20:07.277Z,30.02
2023-03-06T12:22:53.402Z,26.55
2023-03-06T12:25:49.288Z,28.27
2023-03-06T12:28:36.756Z,28.35
2023-03-06T12:32:01.832Z,34.03
2023-03-06T12:34:51.182Z,30.48
2023-03-06T12:37:29.220Z,28.85
2023-03-06T12:40:23.944Z,31.77
2023-03-06T12:43:22.872Z,29.25
2023-03-06T12:45:56.100Z,30.67
2023-03-06T12:48:29.605Z,27.50
2023-03-06T12:50:57.880Z,29.65
2023-03-06T12:53:31.352Z,30.85
2023-03-06T12:56:02.279Z,26.27
2023-03-06T12:58:30.050Z,28.33
2023-03-06T13:01:09.909Z,24.73
2023-03-06T13:04:01.456Z,23.65
2023-03-06T13:06:54.970Z,31.45
2023-03-06T13:09:40.405Z,24.90
2023-03-06T13:12:19.908Z,27.95
2023-03-06T13:14:54.062Z,27.58
2023-03-06T13:17:24.267Z,28.38
2023-03-06T13:20:20.487Z,24.40
2023-03-06T13:22:48.187Z,27.92
2023-03-06T13:25:21.064Z,26.60
2023-03-06T13:27:54.414Z,25.10
2023-03-06T13:30:28.434Z,30.00
2023-03-06T13:32:56.558Z,25.50
2023-03-06T13:35:52.649Z,26.25
2023-03-06T13:39:06.266Z,27.60
2023-03-06T13:41:37.615Z,25.05
2023-03-06T13:44:28.270Z,36.53
2023-03-06T13:47:02.004Z,28.13
2023-03-06T13:49:30.056Z,27.75
2023-03-06T13:52:23.346Z,26.52
2023-03-06T13:55:24.173Z,31.80
2023-03-06T13:58:41.592Z,27.17
2023-03-06T14:01:59.373Z,26.38
2023-03-06T14:04:38.688Z,28.23
2023-03-06T14:07:19.754Z,25.15
2023-03-06T14:10:25.323Z,28.40
2023-03-06T14:12:55.412Z,24.95
2023-03-06T14:15:55.659Z,25.42
2023-03-06T14:18:27.119Z,29.83
2023-03-06T14:21:00.728Z,21.08
2023-03-06T14:23:32.266Z,25.77
2023-03-06T14:26:05.919Z,25.85
2023-03-06T14:28:34.885Z,28.83
2023-03-06T14:31:05.035Z,27.40
2023-03-06T14:33:34.960Z,23.73
2023-03-06T14:36:08.310Z,22.90
2023-03-06T14:38:45.762Z,32.90
2023-03-06T14:41:14.147Z,27.77
2023-03-06T14:43:41.401Z,26.98
2023-03-06T14:46:21.164Z,27.10
2023-03-06T14:48:49.823Z,24.08
2023-03-06T14:51:23.597Z,32.75
2023-03-06T14:53:54.216Z,26.42
2023-03-06T14:56:27.569Z,25.63
2023-03-06T14:59:06.491Z,27.15
2023-03-06T15:01:48.656Z,28.80
2023-03-06T15:04:27.974Z,28.00
2023-03-06T15:06:58.185Z,24.52
2023-03-06T15:09:25.377Z,27.70
2023-03-06T15:12:01.780Z,22.45
2023-03-06T15:14:31.070Z,23.02
2023-03-06T15:17:17.686Z,32.47
2023-03-06T15:19:48.806Z,23.20
2023-03-06T15:22:41.751Z,23.08
2023-03-06T15:25:32.158Z,24.48
2023-03-06T15:28:22.158Z,27.77
2023-03-06T15:31:21.417Z,26.20
2023-03-06T15:34:23.455Z,27.65
2023-03-06T15:36:55.921Z,27.30
2023-03-06T15:39:41.145Z,29.30
2023-03-06T15:42:26.643Z,24.98
2023-03-06T15:45:05.767Z,30.08
2023-03-06T15:47:32.902Z,23.98
2023-03-06T15:50:00.085Z,29.73
2023-03-06T15:52:27.235Z,25.40
2023-03-06T15:54:54.363Z,28.63
2023-03-06T15:57:26.680Z,26.73
2023-03-06T15:59:54.485Z,40.38
2023-03-06T16:02:24.348Z,28.02
2023-03-06T16:04:52.526Z,29.15
2023-03-06T16:07:20.730Z,29.85
2023-03-06T16:09:48.758Z,26.10
2023-03-06T16:12:21.109Z,22.77
2023-03-06T16:14:51.497Z,26.85
2023-03-06T16:17:18.769Z,30.88
2023-03-06T16:19:46.027Z,28.20
2023-03-06T16:22:13.890Z,27.73
2023-03-06T16:24:41.980Z,25.67
2023-03-06T16:27:20.597Z,24.13
2023-03-06T16:29:47.924Z,25.90
2023-03-06T16:32:15.141Z,23.27
2023-03-06T16:34:42.341Z,26.52
2023-03-06T16:37:13.203Z,24.20
2023-03-06T16:39:40.321Z,27.77
2023-03-06T16:42:07.622Z,30.08
2023-03-06T16:44:35.181Z,28.02
2023-03-06T16:47:02.279Z,25.15
2023-03-06T16:49:29.508Z,25.27
2023-03-06T16:51:56.645Z,28.15
2023-03-06T16:54:26.794Z,24.67
2023-03-06T16:56:54.685Z,28.38
2023-03-06T16:59:22.060Z,27.92
2023-03-06T17:01:49.497Z,30.20
2023-03-06T17:04:16.754Z,23.92
2023-03-06T17:06:43.908Z,32.88
2023-03-06T17:09:11.760Z,24.85
2023-03-06T17:11:39.353Z,27.15
2023-03-06T17:14:07.076Z,27.85
2023-03-06T17:16:36.576Z,31.05
2023-03-06T17:19:03.757Z,27.95
2023-03-06T17:21:31.064Z,31.58
2023-03-06T17:23:58.387Z,30.00
2023-03-06T17:26:26.633Z,34.55
2023-03-06T17:28:55.926Z,31.83
2023-03-06T17:31:27.838Z,28.85
2023-03-06T17:34:00.358Z,29.23
2023-03-06T17:36:31.993Z,27.52
2023-03-06T17:39:02.168Z,29.55
2023-03-06T17:41:29.990Z,31.58
2023-03-06T17:43:58.468Z,26.38
2023-03-06T17:46:26.115Z,23.85
2023-03-06T17:48:53.572Z,31.02
2023-03-06T17:51:21.086Z,31.30
2023-03-06T17:53:49.416Z,31.35
2023-03-06T17:56:16.658Z,30.80
2023-03-06T17:58:44.054Z,32.45
2023-03-06T18:01:18.368Z,34.38
2023-03-06T18:03:49.285Z,39.25
2023-03-06T18:06:18.469Z,38.25
2023-03-06T18:08:46.122Z,37.92
2023-03-06T18:11:14.434Z,38.67
2023-03-06T18:13:44.139Z,36.08
2023-03-06T18:16:14.997Z,35.33
2023-03-06T18:18:42.141Z,37.17
2023-03-06T18:21:12.795Z,33.80
2023-03-06T18:23:40.902Z,36.97
2023-03-06T18:26:20.964Z,32.20
2023-03-06T18:28:53.054Z,35.90
2023-03-06T18:31:25.499Z,31.70
2023-03-06T18:33:55.642Z,30.40
2023-03-06T18:36:27.026Z,30.58
2023-03-06T18:38:54.692Z,39.15
2023-03-06T18:41:22.866Z,41.50
2023-03-06T18:43:55.924Z,32.05
2023-03-06T18:46:24.120Z,39.03
2023-03-06T18:48:51.457Z,40.65
2023-03-06T18:51:20.237Z,45.92
2023-03-06T18:53:47.974Z,51.70
2023-03-06T18:56:22.876Z,43.38
2023-03-06T18:58:50.537Z,49.15
2023-03-06T19:01:18.598Z,37.25
2023-03-06T19:03:46.697Z,45.20
2023-03-06T19:06:17.246Z,41.20
2023-03-06T19:08:44.932Z,39.58
2023-03-06T19:11:16.649Z,41.42
2023-03-06T19:13:44.537Z,39.60
2023-03-06T19:16:21.373Z,41.10
2023-03-06T19:18:48.849Z,39.65
2023-03-06T19:21:19.727Z,56.72
2023-03-06T19:23:47.728Z,48.85
2023-03-06T19:26:16.546Z,48.47
2023-03-06T19:28:43.649Z,43.53
2023-03-06T19:31:20.147Z,39.17
2023-03-06T19:33:49.463Z,43.65
2023-03-06T19:36:18.688Z,46.88
2023-03-06T19:38:50.434Z,52.70
2023-03-06T19:41:17.562Z,44.03
2023-03-06T19:43:44.611Z,47.28
2023-03-06T19:46:13.929Z,45.75
2023-03-06T19:48:42.621Z,43.50
2023-03-06T19:51:10.583Z,49.47
2023-03-06T19:53:41.833Z,48.30
2023-03-06T19:56:14.997Z,44.47
2023-03-06T19:58:42.683Z,45.75
2023-03-06T20:01:16.635Z,46.70
2023-03-06T20:03:44.776Z,38.53
2023-03-06T20:06:18.761Z,43.53
2023-03-06T20:08:47.800Z,42.13
2023-03-06T20:11:25.333Z,47.10
2023-03-06T20:13:53.323Z,53.25
2023-03-06T20:16:20.703Z,60.65
2023-03-06T20:18:47.745Z,46.30
2023-03-06T20:21:15.837Z,53.13
2023-03-06T20:23:43.309Z,51.22
2023-03-06T20:26:14.371Z,46.10
2023-03-06T20:28:42.685Z,49.50
2023-03-06T20:31:20.095Z,50.63
2023-03-06T20:33:50.680Z,49.83
2023-03-06T20:36:28.998Z,52.85
2023-03-06T20:39:00.183Z,52.58
2023-03-06T20:41:30.307Z,52.05
2023-03-06T20:44:03.014Z,48.33
2023-03-06T20:46:30.656Z,48.90
2023-03-06T20:48:58.349Z,51.88
2023-03-06T20:51:31.805Z,57.38
2023-03-06T20:54:01.388Z,50.05
2023-03-06T20:56:32.168Z,55.42
2023-03-06T20:58:59.832Z,44.03
2023-03-06T21:01:33.267Z,44.35
2023-03-06T21:04:04.339Z,47.63
2023-03-06T21:06:32.302Z,47.75
2023-03-06T21:09:01.460Z,50.13
2023-03-06T21:11:28.854Z,46.75
2023-03-06T21:13:57.140Z,45.92
2023-03-06T21:16:26.814Z,47.55
2023-03-06T21:18:55.631Z,52.45
2023-03-06T21:21:25.979Z,60.72
2023-03-06T21:23:53.165Z,57.40
2023-03-06T21:26:23.462Z,54.35
2023-03-06T21:28:50.990Z,50.17
2023-03-06T21:31:21.748Z,54.28
2023-03-06T21:33:50.403Z,56.38
2023-03-06T21:36:21.488Z,54.80
2023-03-06T21:38:49.994Z,48.88
2023-03-06T21:41:26.796Z,47.22
2023-03-06T21:43:58.445Z,53.30
2023-03-06T21:46:27.703Z,50.70
2023-03-06T21:48:55.709Z,49.72
2023-03-06T21:51:24.164Z,49.30
2023-03-06T21:53:52.917Z,45.47
2023-03-06T21:56:25.044Z,49.47
2023-03-06T21:58:55.854Z,56.10
2023-03-06T22:01:29.169Z,50.25
2023-03-06T22:04:00.526Z,49.55
2023-03-06T22:06:31.190Z,52.35
2023-03-06T22:09:00.308Z,46.30
2023-03-06T22:11:31.479Z,53.80
2023-03-06T22:13:58.947Z,49.58
2023-03-06T22:16:26.169Z,50.95
2023-03-06T22:18:53.255Z,54.78
2023-03-06T22:21:22.617Z,48.22
2023-03-06T22:23:59.966Z,56.67
2023-03-06T22:26:28.818Z,51.78
2023-03-06T22:29:00.325Z,54.03
2023-03-06T22:31:29.075Z,51.33
2023-03-06T22:33:59.209Z,53.72
2023-03-06T22:36:28.615Z,57.33
2023-03-06T22:38:59.865Z,65.97
2023-03-06T22:41:28.833Z,54.55
2023-03-06T22:44:01.687Z,56.10
2023-03-06T22:46:29.241Z,58.55
2023-03-06T22:49:02.182Z,50.70
2023-03-06T22:51:29.910Z,55.37
2023-03-06T22:53:57.145Z,49.42
2023-03-06T22:56:25.642Z,55.25
2023-03-06T22:58:52.864Z,50.13
2023-03-06T23:01:25.320Z,48.03
2023-03-06T23:03:56.613Z,50.45
2023-03-06T23:06:32.568Z,52.22
2023-03-06T23:09:14.666Z,49.15
2023-03-06T23:12:00.649Z,54.53
2023-03-06T23:14:49.813Z,51.13
2023-03-06T23:17:35.592Z,50.42
2023-03-06T23:20:22.134Z,56.88
2023-03-06T23:23:07.990Z,51.65
2023-03-06T23:25:44.554Z,51.67
2023-03-06T23:28:12.444Z,50.10
2023-03-06T23:30:40.189Z,44.28
2023-03-06T23:33:08.460Z,48.70
2023-03-06T23:35:37.864Z,50.05
2023-03-06T23:38:05.442Z,44.55
2023-03-06T23:40:34.577Z,57.28
2023-03-06T23:43:02.473Z,54.08
2023-03-06T23:45:29.991Z,51.55
2023-03-06T23:47:57.253Z,49.22
2023-03-06T23:50:29.328Z,42.28
2023-03-06T23:52:56.515Z,45.83
2023-03-06T23:55:23.642Z,47.38
2023-03-06T23:57:50.715Z,45.80
